Address 0x266f62cd2c0c3a02dc1033022f7907be45af2bc3 4

Overview

Balance:
6.996613930001559891 BNB

Token:
My Name Tag:
Not Available

Txn Hash Method
Block
From
To
Value [Txn Fee]
0xe9ec80842c2958125568d92450a2c51a393450e5383e9e3ed94b7f3c49b82185Transfer145308122021-11-29 7:18:127 days 1 hr ago0x266f62cd2c0c3a02dc1033022f7907be45af2bc3OUT 0xeacba1453510d5e91745fe10982fd8fe81bac3120 BNB0.00073842
0x1227af5909800929383ad9542353a0a366dae107e7d571be2de8c104a529ac2cWithdraw145304892021-11-29 7:02:037 days 2 hrs ago0x266f62cd2c0c3a02dc1033022f7907be45af2bc3OUT 0x57e230ef996a4bfe7cffa129fc95bf8b44f683c80 BNB0.00056152
0x378f93a0803a2ba3124d6a5e39314c71d474fb6661ce605f7897a0f4d8a3fafeTransfer145304872021-11-29 7:01:577 days 2 hrs ago0x266f62cd2c0c3a02dc1033022f7907be45af2bc3OUT 0xeacba1453510d5e91745fe10982fd8fe81bac3120 BNB0.00036921
0x07292c111766dbceaa557a0131a119f3d93bdc6dc0c0e4024260310691d1269fTransfer145304732021-11-29 7:01:157 days 2 hrs ago0x266f62cd2c0c3a02dc1033022f7907be45af2bc3OUT 0xeacba1453510d5e91745fe10982fd8fe81bac3120 BNB0.00051921
0xbd72e551043e4cac52563e36bfbdb70db4bfdb690b86947964c88db059b945c5Approve145304342021-11-29 6:59:187 days 2 hrs ago0x266f62cd2c0c3a02dc1033022f7907be45af2bc3OUT 0xeacba1453510d5e91745fe10982fd8fe81bac3120 BNB0.00089632
0x711e2e13ce870b54973b1754f03b34e8431ac16e5ff58b1d0925d61347ca0ea8Mint145304322021-11-29 6:59:127 days 2 hrs ago0x266f62cd2c0c3a02dc1033022f7907be45af2bc3OUT 0xeacba1453510d5e91745fe10982fd8fe81bac3120 BNB0.00134866
0xc5add181cb7a1300c3a1b41da2d1a33f7c7526837a330b359b7697312a0e0c800x60806040145304292021-11-29 6:59:037 days 2 hrs ago0x266f62cd2c0c3a02dc1033022f7907be45af2bc3OUT Contract Creation0 BNB0.00790548
0x7b1d0bb71bb732b1e3c7f99f14340804eefcfa3afaf99674fecc7d13d5129be80x60806040145304242021-11-29 6:58:487 days 2 hrs ago0x266f62cd2c0c3a02dc1033022f7907be45af2bc3OUT Contract Creation0 BNB0.03344688
0x30d502a732de6324ab56a60890dbe90f773a184cfc59016bb3110b1b2a778b07Transfer145301322021-11-29 6:44:127 days 2 hrs ago0x266f62cd2c0c3a02dc1033022f7907be45af2bc3OUT 0xdfdf6e885fead9e84c109f506e48bc03d8a195370 BNB0.00036921
0x20f1b8538af9a2ef67f39df49f52626d0e01933c03fd28f9a5073e3db9c72c69Transfer145300302021-11-29 6:39:067 days 2 hrs ago0x266f62cd2c0c3a02dc1033022f7907be45af2bc3OUT 0xdfdf6e885fead9e84c109f506e48bc03d8a195370 BNB0.00036921
0xe961eef0e83b8ee4b1478e0314c35edee74a79fffdb59e0082534afb6eaf1d4eTransfer145299072021-11-29 6:32:577 days 2 hrs ago0x266f62cd2c0c3a02dc1033022f7907be45af2bc3OUT 0xdfdf6e885fead9e84c109f506e48bc03d8a195370 BNB0.00036921
0x268533c0f580d96e520bd298a9fe2d4f3eba0f19753e04afe59aac823c681e77Transfer145298122021-11-29 6:28:127 days 2 hrs ago0x266f62cd2c0c3a02dc1033022f7907be45af2bc3OUT 0xdfdf6e885fead9e84c109f506e48bc03d8a195370 BNB0.00036921
0x595395b91d52f98e8bb363e07d32b203552a99a422daa25896485bd152e263cbTransfer145297572021-11-29 6:25:277 days 2 hrs ago0x266f62cd2c0c3a02dc1033022f7907be45af2bc3OUT 0xdfdf6e885fead9e84c109f506e48bc03d8a195370 BNB0.00036921
0xf0ab5c324280abab0e24fe0cd0a736190227c87e44d7824d7ce4532c41555347Transfer145296892021-11-29 6:22:037 days 2 hrs ago0x266f62cd2c0c3a02dc1033022f7907be45af2bc3OUT 0xdfdf6e885fead9e84c109f506e48bc03d8a195370 BNB0.00036921
0xf59d227e05ae24794b65c14d5ec199123c32b4054c5f28f478452d935353cd70Transfer145296682021-11-29 6:21:007 days 2 hrs ago0x266f62cd2c0c3a02dc1033022f7907be45af2bc3OUT 0xdfdf6e885fead9e84c109f506e48bc03d8a195370 BNB0.00036921
0x0c57cffa8d30e6759d1e8e0ced6383a3c0ff7f0ed292d9eec57af8c47c936e19Transfer145296532021-11-29 6:20:157 days 2 hrs ago0x266f62cd2c0c3a02dc1033022f7907be45af2bc3OUT 0xdfdf6e885fead9e84c109f506e48bc03d8a195370 BNB0.00036921
0xf283e15275e6b14e7b56a05662c114ffc039ef80a41b38328e447e0932b852bcTransfer145296112021-11-29 6:18:097 days 2 hrs ago0x266f62cd2c0c3a02dc1033022f7907be45af2bc3OUT 0xdfdf6e885fead9e84c109f506e48bc03d8a195370 BNB0.00036921
0x305aa7a3760e6ef61e7658d06154b99cdddb0e9e83048b1f7d5a26960d77205eTransfer145295842021-11-29 6:16:487 days 2 hrs ago0x266f62cd2c0c3a02dc1033022f7907be45af2bc3OUT 0xdfdf6e885fead9e84c109f506e48bc03d8a195370 BNB0.00036921
0xe1ca68c1a154477cfb33bb6e3db104c35f4bb56a18a22b1e70384202c01708e7Transfer145295052021-11-29 6:12:517 days 3 hrs ago0x266f62cd2c0c3a02dc1033022f7907be45af2bc3OUT 0xdfdf6e885fead9e84c109f506e48bc03d8a195370 BNB0.00051921
0x4fd49df5b9b0e1737ee82ff3ab350a5ee9b51fde578c6dc2c7b927ed784dc706Burn144721702021-11-27 6:24:369 days 2 hrs ago0x266f62cd2c0c3a02dc1033022f7907be45af2bc3OUT 0x0c13cc9fa2be98344dff06e889fa7f03a22c9d530 BNB0.0003693
0x416c194e281ee463cd62086d246a0308d48d7491976e02f3679b79677fd6a4a7Burn144527162021-11-26 14:11:539 days 19 hrs ago0x266f62cd2c0c3a02dc1033022f7907be45af2bc3OUT 0x0c13cc9fa2be98344dff06e889fa7f03a22c9d530 BNB0.0003693
0x3588ab1c8126a63e256f25e0ca8ded1b34dcb558986dae2c38b38fe7a967d223Transfer144526802021-11-26 14:10:059 days 19 hrs ago0x266f62cd2c0c3a02dc1033022f7907be45af2bc3OUT 0x0c13cc9fa2be98344dff06e889fa7f03a22c9d530 BNB0.00039166
0x6702a90c9c05d60023d8576a11f5ff39ec2919d47947fb809fb3ab5e951bf726Mint144526782021-11-26 14:09:599 days 19 hrs ago0x266f62cd2c0c3a02dc1033022f7907be45af2bc3OUT 0x0c13cc9fa2be98344dff06e889fa7f03a22c9d530 BNB0.00037299
0xdb86aa3a98ba54318bfec063c75446245850b82ff8d24f8c6595100f28746edcBurn144525822021-11-26 14:05:119 days 19 hrs ago0x266f62cd2c0c3a02dc1033022f7907be45af2bc3OUT 0x0c13cc9fa2be98344dff06e889fa7f03a22c9d530 BNB0.0003693
0x97559e3f52de9c7bd20e1c0d74f1b53634c92b6fdf0ab9d80dafe6acde813887Burn144521552021-11-26 13:43:509 days 19 hrs ago0x266f62cd2c0c3a02dc1033022f7907be45af2bc3OUT 0x0c13cc9fa2be98344dff06e889fa7f03a22c9d530 BNB0.0003693
[ Download CSV Export 
Latest 4 internal transactions
Parent Txn Hash Block From To Value
0xbe109f870a0bdc7232c09c6a70be515b64fc7588312a83263b0c7e645d3e1daa131529062021-10-12 6:03:4855 days 3 hrs ago 0xeaab131dcf37583b3bea825dce563d4354f8c3ea0x266f62cd2c0c3a02dc1033022f7907be45af2bc30.000000001 BNB
0xed0fa475627518d65a5b6e93e79fbc8006346025b271779e8eb7b97329115c52131245122021-10-11 6:07:2056 days 3 hrs ago 0xeaab131dcf37583b3bea825dce563d4354f8c3ea0x266f62cd2c0c3a02dc1033022f7907be45af2bc30.0000000001 BNB
0x9993dd12a0df17de83426062701aa778b57bf4d69527d9a9376988c37f550e29131244742021-10-11 6:05:2656 days 3 hrs ago 0xeaab131dcf37583b3bea825dce563d4354f8c3ea0x266f62cd2c0c3a02dc1033022f7907be45af2bc30.000000001 BNB
0x65b07e75632795a21efaa7ff312c364fdb42d94431e1e313fa97f8b260a02f85118437512021-08-27 12:24:36100 days 20 hrs ago 0xcdcfcd6004ab2705e79b4df23f42db91d04c41fc0x266f62cd2c0c3a02dc1033022f7907be45af2bc30.000000000001559891 BNB
[ Download CSV Export 
Loading

Contract Name:
0 BNB

Compiler Version
0

Optimization Enabled:
0 BNB

Other Settings:
-NA-
Block Transaction Gas Used Reward
Age Block Fee Address BC Fee Address Voting Power Jailed Incoming
Block Uncle Number Difficulty Gas Used Reward
Loading